Time;durP1;ratioP1;P1;durP2;ratioP2;P2;SDS_P1;SDS_P2;PMS_P1;PMS_P2;Temp;Humidity;BMP_temperature;BMP_pressure;BME280_temperature;BME280_humidity;BME280_pressure;Samples;Min_cycle;Max_cycle;Signal;HPM_P1;HPM_P2
2022/08/24 00:00:59;;;;;;;3.83;3.53;;;17.00;99.90;;;;;;5041959;28;20177;-74
2022/08/24 00:03:25;;;;;;;4.35;3.95;;;17.10;99.90;;;;;;5038131;28;20184;-72
2022/08/24 00:05:52;;;;;;;4.15;3.85;;;17.10;99.90;;;;;;5039692;28;20180;-73
2022/08/24 00:08:19;;;;;;;5.05;4.15;;;17.10;99.90;;;;;;5035670;28;20188;-73
2022/08/24 00:10:45;;;;;;;4.30;4.00;;;17.00;99.90;;;;;;5039046;28;20705;-72
2022/08/24 00:13:12;;;;;;;4.18;3.75;;;17.00;99.90;;;;;;5045541;28;20207;-72
2022/08/24 00:15:39;;;;;;;4.00;3.80;;;16.90;99.90;;;;;;5043234;28;20195;-72
2022/08/24 00:18:05;;;;;;;4.50;4.20;;;16.90;99.90;;;;;;5035284;28;20209;-72
2022/08/24 00:20:31;;;;;;;4.43;4.18;;;16.80;99.90;;;;;;5036150;28;20575;-72
2022/08/24 00:22:57;;;;;;;4.13;3.83;;;16.80;99.90;;;;;;5043470;28;20176;-72
2022/08/24 00:25:23;;;;;;;4.35;4.00;;;16.70;99.90;;;;;;5038337;28;20658;-73
2022/08/24 00:27:48;;;;;;;4.85;4.55;;;16.70;99.90;;;;;;5035486;28;20205;-73
2022/08/24 00:30:18;;;;;;;4.40;4.10;;;16.60;99.90;;;;;;5038732;28;20255;-73
2022/08/24 00:32:46;;;;;;;4.13;3.88;;;16.50;99.90;;;;;;5040538;28;20199;-72
2022/08/24 00:35:13;;;;;;;4.57;4.18;;;16.50;99.90;;;;;;5040450;28;20181;-73
2022/08/24 00:37:39;;;;;;;4.60;4.30;;;16.50;99.90;;;;;;5037345;28;20188;-72
2022/08/24 00:40:12;;;;;;;5.05;4.72;;;16.50;99.90;;;;;;5035688;28;20603;-73
2022/08/24 00:42:39;;;;;;;5.32;4.82;;;16.60;99.90;;;;;;5047005;28;20182;-73
2022/08/24 00:45:07;;;;;;;4.80;4.50;;;16.70;99.90;;;;;;5040773;28;20210;-72
2022/08/24 00:47:43;;;;;;;5.00;4.57;;;16.70;99.90;;;;;;5041763;28;20207;-72
2022/08/24 00:50:13;;;;;;;4.93;4.55;;;16.70;99.90;;;;;;5033697;28;20183;-72
2022/08/24 00:52:45;;;;;;;5.18;4.80;;;16.70;99.90;;;;;;5035443;28;20231;-72
2022/08/24 00:55:16;;;;;;;4.43;4.03;;;16.70;99.90;;;;;;5034369;28;20164;-72
2022/08/24 00:57:45;;;;;;;5.07;4.47;;;16.70;99.90;;;;;;5033175;28;20193;-71
2022/08/24 01:00:17;;;;;;;5.10;4.70;;;16.70;99.90;;;;;;5026481;28;20179;-72
2022/08/24 01:02:47;;;;;;;5.15;4.68;;;16.60;99.90;;;;;;5036999;28;20184;-72
2022/08/24 01:05:15;;;;;;;4.90;4.38;;;16.50;99.90;;;;;;5055294;28;20282;-71
2022/08/24 01:07:40;;;;;;;4.80;4.40;;;16.40;99.90;;;;;;5034489;28;20204;-72
2022/08/24 01:10:09;;;;;;;4.78;4.35;;;16.30;99.90;;;;;;5043175;28;20183;-72
2022/08/24 01:12:38;;;;;;;5.00;4.60;;;16.30;99.90;;;;;;5026681;28;20227;-73
2022/08/24 01:15:06;;;;;;;5.35;4.95;;;16.40;99.90;;;;;;5033296;28;20546;-72
2022/08/24 01:20:18;;;;;;;5.18;4.78;;;16.10;99.90;;;;;;5036606;28;20597;-72
2022/08/24 01:23:14;;;;;;;4.40;4.10;;;16.00;99.90;;;;;;5047354;28;20175;-72
2022/08/24 01:25:43;;;;;;;4.47;4.18;;;16.00;99.90;;;;;;5046064;28;20557;-72
2022/08/24 01:28:17;;;;;;;4.70;4.20;;;16.00;99.90;;;;;;5044589;28;20191;-72
2022/08/24 01:30:43;;;;;;;4.72;4.35;;;16.00;99.90;;;;;;5046882;28;20653;-72
2022/08/24 01:33:21;;;;;;;4.60;4.30;;;16.10;99.90;;;;;;5037961;28;20214;-72
2022/08/24 01:35:47;;;;;;;4.40;4.10;;;16.00;99.90;;;;;;5043251;28;20195;-72
2022/08/24 01:38:12;;;;;;;4.97;4.50;;;16.00;99.90;;;;;;5038683;28;20195;-72
2022/08/24 01:40:45;;;;;;;5.18;4.78;;;16.00;99.90;;;;;;5043622;28;20187;-73
2022/08/24 01:43:11;;;;;;;5.28;4.78;;;16.10;99.90;;;;;;5038785;28;20194;-72
2022/08/24 01:45:37;;;;;;;4.80;4.47;;;16.00;99.90;;;;;;5050493;28;20190;-73
2022/08/24 01:48:03;;;;;;;5.28;4.88;;;15.90;99.90;;;;;;5045023;28;20290;-72
2022/08/24 01:50:30;;;;;;;5.38;4.97;;;15.80;99.90;;;;;;5034382;28;20193;-73
2022/08/24 01:53:00;;;;;;;6.80;6.20;;;15.80;99.90;;;;;;5043063;28;20662;-72
2022/08/24 01:55:26;;;;;;;6.05;5.57;;;15.80;99.90;;;;;;5040710;28;20176;-72
2022/08/24 01:57:51;;;;;;;6.20;5.60;;;15.70;99.90;;;;;;5038080;28;20201;-72
2022/08/24 02:00:17;;;;;;;6.40;5.90;;;15.70;99.90;;;;;;5040939;28;20222;-72
2022/08/24 02:02:44;;;;;;;6.75;6.00;;;15.70;99.90;;;;;;5039114;28;20199;-72
2022/08/24 02:05:11;;;;;;;6.13;5.72;;;15.70;99.90;;;;;;5036187;28;20260;-72
2022/08/24 02:07:38;;;;;;;5.68;5.18;;;15.70;99.90;;;;;;5034717;28;20192;-72
2022/08/24 02:10:06;;;;;;;6.70;6.20;;;15.60;99.90;;;;;;5043559;28;20309;-74
2022/08/24 02:12:33;;;;;;;6.65;6.15;;;15.60;99.90;;;;;;5046900;28;20675;-71
2022/08/24 02:15:01;;;;;;;5.97;5.47;;;15.60;99.90;;;;;;5034490;28;20188;-73
2022/08/24 02:17:27;;;;;;;6.53;6.03;;;15.60;99.90;;;;;;5038908;28;20189;-72
2022/08/24 02:19:52;;;;;;;6.47;5.97;;;15.70;99.90;;;;;;5035526;28;20185;-71
2022/08/24 02:22:18;;;;;;;6.25;5.65;;;15.70;99.90;;;;;;5047373;28;20178;-73
2022/08/24 02:24:44;;;;;;;7.63;6.43;;;15.60;99.90;;;;;;5036341;28;20176;-72
2022/08/24 02:27:10;;;;;;;6.95;6.35;;;15.60;99.90;;;;;;5036710;28;20231;-72
2022/08/24 02:29:36;;;;;;;7.63;6.38;;;15.60;99.90;;;;;;5036761;28;20599;-72
2022/08/24 02:32:02;;;;;;;6.80;6.20;;;15.60;99.90;;;;;;5039485;28;20183;-72
2022/08/24 02:34:28;;;;;;;8.13;5.95;;;15.60;99.90;;;;;;5042974;28;20290;-72
2022/08/24 02:36:53;;;;;;;6.40;5.88;;;15.60;99.90;;;;;;5041750;28;20279;-72
2022/08/24 02:39:19;;;;;;;6.22;5.78;;;15.70;99.90;;;;;;5038704;28;20180;-72
2022/08/24 02:41:45;;;;;;;6.03;5.53;;;15.60;99.90;;;;;;5039351;28;20536;-73
2022/08/24 02:44:11;;;;;;;6.28;5.70;;;15.60;99.90;;;;;;5045618;28;20215;-73
2022/08/24 02:46:36;;;;;;;5.90;5.50;;;15.60;99.90;;;;;;5039240;28;20193;-73
2022/08/24 02:49:03;;;;;;;6.38;5.88;;;15.60;99.90;;;;;;5039576;28;20191;-73
2022/08/24 02:51:32;;;;;;;6.65;6.25;;;15.60;99.90;;;;;;5037954;28;20172;-75
2022/08/24 02:54:00;;;;;;;5.93;5.53;;;15.50;99.90;;;;;;5045292;28;20204;-73
2022/08/24 02:56:28;;;;;;;6.03;5.55;;;15.50;99.90;;;;;;5029400;28;20576;-76
2022/08/24 02:58:55;;;;;;;5.93;5.43;;;15.50;99.90;;;;;;5045188;28;20413;-73
2022/08/24 03:01:21;;;;;;;5.85;5.45;;;15.50;99.90;;;;;;5038238;28;20183;-72
2022/08/24 03:03:46;;;;;;;5.93;5.53;;;15.60;99.90;;;;;;5046400;28;20177;-73
2022/08/24 03:06:12;;;;;;;5.95;5.55;;;15.50;99.90;;;;;;5044994;28;20639;-73
2022/08/24 03:08:39;;;;;;;5.90;5.30;;;15.50;99.90;;;;;;5030191;28;20205;-72
2022/08/24 03:11:05;;;;;;;5.60;5.20;;;15.60;99.90;;;;;;5029402;28;20181;-73
2022/08/24 03:13:31;;;;;;;6.15;5.65;;;15.60;99.90;;;;;;5030685;28;20216;-72
2022/08/24 03:15:58;;;;;;;5.22;4.82;;;15.60;99.90;;;;;;5039956;28;20543;-72
2022/08/24 03:18:25;;;;;;;5.20;4.72;;;15.70;99.90;;;;;;5033484;28;20192;-73
2022/08/24 03:20:55;;;;;;;5.15;4.85;;;15.70;99.90;;;;;;5046751;28;20548;-73
2022/08/24 03:23:22;;;;;;;5.63;5.18;;;15.60;99.90;;;;;;5040902;28;20169;-73
2022/08/24 03:25:49;;;;;;;6.15;5.57;;;15.60;99.90;;;;;;5033744;28;20176;-73
2022/08/24 03:28:15;;;;;;;5.50;5.00;;;15.60;99.90;;;;;;5035114;28;20210;-72
2022/08/24 03:30:42;;;;;;;6.10;5.32;;;15.50;99.90;;;;;;5034430;28;20599;-73
2022/08/24 03:33:08;;;;;;;5.50;5.10;;;15.40;99.90;;;;;;5027178;28;20196;-73
2022/08/24 03:35:34;;;;;;;5.85;5.43;;;15.30;99.90;;;;;;5031816;28;20218;-73
2022/08/24 03:38:00;;;;;;;5.82;5.30;;;15.30;99.90;;;;;;5044136;28;20205;-73
2022/08/24 03:40:26;;;;;;;5.32;4.93;;;15.40;99.90;;;;;;5039262;28;20180;-73
2022/08/24 03:42:52;;;;;;;5.65;5.20;;;15.40;99.90;;;;;;5036805;28;20519;-73
2022/08/24 03:45:19;;;;;;;5.97;5.38;;;15.40;99.90;;;;;;5037676;28;20230;-73
2022/08/24 03:47:45;;;;;;;5.72;5.25;;;15.40;99.90;;;;;;5035489;28;20231;-74
2022/08/24 03:50:11;;;;;;;5.10;4.70;;;15.30;99.90;;;;;;5044435;28;20599;-74
2022/08/24 03:52:37;;;;;;;5.45;4.97;;;15.30;99.90;;;;;;5044848;28;20197;-74
2022/08/24 03:55:05;;;;;;;6.40;5.90;;;15.20;99.90;;;;;;5042466;28;20179;-74
2022/08/24 03:57:31;;;;;;;5.72;5.22;;;15.10;99.90;;;;;;5044220;28;20204;-74
2022/08/24 03:59:57;;;;;;;5.43;5.03;;;15.10;99.90;;;;;;5041449;28;20222;-74
2022/08/24 04:02:23;;;;;;;5.35;4.85;;;15.10;99.90;;;;;;5032880;28;20195;-74
2022/08/24 04:04:49;;;;;;;5.63;5.22;;;15.00;99.90;;;;;;5041965;28;20183;-74
2022/08/24 04:07:14;;;;;;;6.00;5.45;;;15.00;99.90;;;;;;5044210;28;20191;-73
2022/08/24 04:09:40;;;;;;;5.93;5.43;;;14.90;99.90;;;;;;5044305;28;20171;-73
2022/08/24 04:12:06;;;;;;;6.88;6.05;;;14.90;99.90;;;;;;5031440;28;20270;-72
2022/08/24 04:14:33;;;;;;;6.57;6.07;;;14.90;99.90;;;;;;5044099;28;20294;-73
2022/08/24 04:16:59;;;;;;;6.50;6.00;;;14.90;99.90;;;;;;5042305;28;20192;-72
2022/08/24 04:19:25;;;;;;;6.60;6.05;;;14.90;99.90;;;;;;5035606;28;20272;-72
2022/08/24 04:21:51;;;;;;;7.68;6.22;;;14.90;99.90;;;;;;5042492;28;20228;-72
2022/08/24 04:24:18;;;;;;;7.07;6.13;;;14.90;99.90;;;;;;5030685;28;20208;-71
2022/08/24 04:26:44;;;;;;;7.13;6.53;;;14.90;99.90;;;;;;5025979;28;20208;-71
2022/08/24 04:29:11;;;;;;;6.38;5.88;;;14.90;99.90;;;;;;5035316;28;20268;-71
2022/08/24 04:31:38;;;;;;;6.00;5.50;;;14.90;99.90;;;;;;5044473;28;20172;-71
2022/08/24 04:34:04;;;;;;;6.07;5.57;;;15.00;99.90;;;;;;5037630;28;20299;-71
2022/08/24 04:36:31;;;;;;;5.93;5.43;;;15.10;99.90;;;;;;5020136;28;20173;-71
2022/08/24 04:38:57;;;;;;;5.97;5.45;;;15.20;99.90;;;;;;5031133;28;20279;-72
2022/08/24 04:41:22;;;;;;;6.47;6.00;;;15.30;99.90;;;;;;5030175;28;20272;-72
2022/08/24 04:43:49;;;;;;;7.53;6.82;;;15.40;99.90;;;;;;5029922;28;20202;-72
2022/08/24 04:46:17;;;;;;;6.30;5.57;;;15.50;99.90;;;;;;5030100;28;20554;-71
2022/08/24 04:48:45;;;;;;;6.80;6.15;;;15.60;99.90;;;;;;5031713;28;20759;-71
2022/08/24 04:51:13;;;;;;;6.85;6.15;;;15.70;99.90;;;;;;5025418;28;20180;-72
2022/08/24 04:53:40;;;;;;;7.53;6.20;;;15.90;99.90;;;;;;5026375;28;20224;-72
2022/08/24 04:56:25;;;;;;;5.90;5.40;;;16.00;99.90;;;;;;5033129;28;20172;-73
2022/08/24 04:58:54;;;;;;;5.97;5.28;;;16.20;99.90;;;;;;5037342;28;20197;-72
2022/08/24 05:01:24;;;;;;;6.95;6.35;;;16.30;99.90;;;;;;5027851;28;20271;-73
2022/08/24 05:03:52;;;;;;;6.35;5.85;;;16.40;99.90;;;;;;5031628;28;20207;-74
2022/08/24 05:06:20;;;;;;;6.13;5.63;;;16.30;99.90;;;;;;5028577;28;20671;-74
2022/08/24 05:08:46;;;;;;;6.30;5.78;;;16.30;99.90;;;;;;5023334;28;20199;-74
2022/08/24 05:11:12;;;;;;;6.50;5.90;;;16.40;99.90;;;;;;5021389;28;20176;-74
2022/08/24 05:13:39;;;;;;;6.13;5.63;;;16.30;99.90;;;;;;5030028;28;20299;-74
2022/08/24 05:16:11;;;;;;;6.88;5.47;;;16.40;99.90;;;;;;5025978;28;20741;-75
2022/08/24 05:18:37;;;;;;;7.13;6.43;;;16.40;99.90;;;;;;5030925;28;20215;-75
2022/08/24 05:21:07;;;;;;;6.75;6.25;;;16.40;99.90;;;;;;5034491;28;20183;-76
2022/08/24 05:23:34;;;;;;;7.47;6.78;;;16.40;99.90;;;;;;5033168;28;20185;-75
2022/08/24 05:26:12;;;;;;;7.93;6.60;;;16.50;99.90;;;;;;5037547;28;20186;-77
2022/08/24 05:28:38;;;;;;;7.10;6.40;;;16.50;99.90;;;;;;5037140;28;20287;-76
2022/08/24 05:31:14;;;;;;;6.85;6.35;;;16.50;99.90;;;;;;5038126;28;21382;-76
2022/08/24 05:33:40;;;;;;;7.13;6.53;;;16.50;99.90;;;;;;5041104;28;20223;-76
2022/08/24 05:36:13;;;;;;;8.10;7.40;;;16.50;99.90;;;;;;5033933;28;20172;-82
2022/08/24 05:38:39;;;;;;;6.80;6.30;;;16.60;99.90;;;;;;5041368;28;20507;-76
2022/08/24 05:41:04;;;;;;;8.13;7.32;;;16.60;99.90;;;;;;5032962;28;20627;-75
2022/08/24 05:43:30;;;;;;;6.90;6.40;;;16.70;99.90;;;;;;5035024;28;20180;-76
2022/08/24 05:45:56;;;;;;;7.45;6.80;;;16.80;99.90;;;;;;5040437;28;20181;-75
2022/08/24 05:48:21;;;;;;;8.68;6.78;;;16.90;99.90;;;;;;5022646;28;20580;-75
2022/08/24 05:50:55;;;;;;;7.93;7.05;;;17.10;99.90;;;;;;5038306;28;20237;-74
2022/08/24 05:53:21;;;;;;;7.68;7.07;;;17.20;99.90;;;;;;5040220;28;20216;-74
2022/08/24 05:55:47;;;;;;;7.57;6.82;;;17.40;99.90;;;;;;5028589;28;20266;-74
2022/08/24 05:58:13;;;;;;;7.22;6.72;;;17.40;99.90;;;;;;5038975;28;20188;-76
2022/08/24 06:00:38;;;;;;;7.35;6.72;;;17.40;99.90;;;;;;5030208;28;20656;-73
2022/08/24 06:03:04;;;;;;;8.13;7.28;;;17.50;99.90;;;;;;5028245;28;20242;-73
2022/08/24 06:05:30;;;;;;;7.55;6.82;;;17.70;99.90;;;;;;5037638;28;20180;-75
2022/08/24 06:07:55;;;;;;;7.60;7.00;;;17.70;99.90;;;;;;5026931;28;20204;-75
2022/08/24 06:10:21;;;;;;;7.28;6.68;;;17.80;99.90;;;;;;5039852;28;20537;-74
2022/08/24 06:12:47;;;;;;;7.45;6.75;;;17.90;99.90;;;;;;5027102;28;20236;-75
2022/08/24 06:15:13;;;;;;;8.13;7.43;;;17.90;99.90;;;;;;5033056;28;20210;-75
2022/08/24 06:17:38;;;;;;;7.70;7.10;;;17.90;99.90;;;;;;5040099;28;20266;-75
2022/08/24 06:20:06;;;;;;;7.63;6.93;;;17.90;99.90;;;;;;5044979;28;20189;-75
2022/08/24 06:22:32;;;;;;;7.78;7.18;;;18.00;99.90;;;;;;5038619;28;20591;-75
2022/08/24 06:27:41;;;;;;;7.45;6.85;;;18.20;99.90;;;;;;5034187;28;20246;-75
2022/08/24 06:30:09;;;;;;;7.78;7.18;;;18.30;99.90;;;;;;5027435;28;20551;-76
2022/08/24 06:32:35;;;;;;;7.63;6.32;;;18.30;99.90;;;;;;5025360;28;20674;-76
2022/08/24 06:35:01;;;;;;;7.97;7.28;;;18.30;99.90;;;;;;5032264;28;20658;-77
2022/08/24 06:37:27;;;;;;;6.75;6.22;;;18.20;99.90;;;;;;5041942;28;20195;-75
2022/08/24 06:39:55;;;;;;;7.53;6.88;;;18.20;99.90;;;;;;5042302;28;20177;-76
2022/08/24 06:42:23;;;;;;;8.15;7.40;;;18.30;99.90;;;;;;5036834;28;20193;-75
2022/08/24 06:44:50;;;;;;;7.18;6.57;;;18.30;99.90;;;;;;5038647;28;20445;-73
2022/08/24 06:47:17;;;;;;;7.72;6.68;;;18.50;99.90;;;;;;5044643;28;20203;-73
2022/08/24 06:49:42;;;;;;;8.00;7.30;;;18.60;99.90;;;;;;5033782;28;20181;-73
2022/08/24 06:52:10;;;;;;;8.13;7.43;;;18.60;99.90;;;;;;5030933;28;20230;-73
2022/08/24 06:54:36;;;;;;;7.63;6.95;;;18.70;99.90;;;;;;5025578;28;20259;-73
2022/08/24 06:57:02;;;;;;;8.25;7.55;;;18.80;99.90;;;;;;5029164;28;20197;-73
2022/08/24 06:59:28;;;;;;;7.00;6.50;;;18.90;99.90;;;;;;5029535;28;20528;-73
2022/08/24 07:01:55;;;;;;;8.60;6.95;;;18.90;99.90;;;;;;5033356;28;20288;-74
2022/08/24 07:04:22;;;;;;;7.50;6.70;;;19.00;99.90;;;;;;5029195;28;20181;-73
2022/08/24 07:06:48;;;;;;;6.38;5.97;;;19.10;99.90;;;;;;5031186;28;20265;-77
2022/08/24 07:09:14;;;;;;;8.45;6.82;;;19.20;99.90;;;;;;5025935;28;20195;-73
2022/08/24 07:11:40;;;;;;;6.45;5.95;;;19.30;99.90;;;;;;5030322;28;20701;-74
2022/08/24 07:14:06;;;;;;;7.40;6.80;;;19.40;99.90;;;;;;5023357;28;20208;-74
2022/08/24 07:16:32;;;;;;;6.97;6.38;;;19.50;99.90;;;;;;5039317;28;20176;-76
2022/08/24 07:19:00;;;;;;;6.60;5.88;;;19.50;99.90;;;;;;5026463;28;20696;-77
2022/08/24 07:21:26;;;;;;;7.00;6.50;;;19.60;99.90;;;;;;5026204;28;20177;-73
2022/08/24 07:23:58;;;;;;;6.70;6.10;;;19.70;99.90;;;;;;5024473;28;20271;-75
2022/08/24 07:26:25;;;;;;;6.53;6.03;;;19.80;99.90;;;;;;5023475;28;20213;-72
2022/08/24 07:28:59;;;;;;;7.43;6.35;;;19.90;99.90;;;;;;5025324;28;20762;-72
2022/08/24 07:31:26;;;;;;;6.68;5.97;;;19.90;99.90;;;;;;5031122;28;20573;-74
2022/08/24 07:33:51;;;;;;;8.32;5.68;;;20.10;99.90;;;;;;5028702;28;20204;-74
2022/08/24 07:36:18;;;;;;;9.82;6.88;;;20.20;99.90;;;;;;5026233;28;20264;-75
2022/08/24 07:38:45;;;;;;;8.15;6.43;;;20.30;99.90;;;;;;5039214;28;20196;-75
2022/08/24 07:41:13;;;;;;;8.52;6.53;;;20.30;99.90;;;;;;5045834;28;20217;-76
2022/08/24 07:43:39;;;;;;;6.78;6.18;;;20.40;99.90;;;;;;5031823;28;20181;-76
2022/08/24 07:46:06;;;;;;;6.82;5.82;;;20.50;99.90;;;;;;5047648;28;20172;-75
2022/08/24 07:48:33;;;;;;;6.28;5.72;;;20.50;99.90;;;;;;5039033;28;20196;-75
2022/08/24 07:51:09;;;;;;;7.93;5.47;;;20.50;99.90;;;;;;5039151;28;20660;-75
2022/08/24 07:53:36;;;;;;;5.88;5.38;;;20.60;99.90;;;;;;5041426;28;20200;-75
2022/08/24 07:56:01;;;;;;;6.00;5.07;;;20.70;99.90;;;;;;5033247;28;20181;-75
2022/08/24 07:58:27;;;;;;;7.38;5.00;;;20.80;99.90;;;;;;5035685;28;20196;-74
2022/08/24 08:00:53;;;;;;;5.70;5.20;;;21.00;99.90;;;;;;5041312;28;20297;-74
2022/08/24 08:03:20;;;;;;;5.25;4.50;;;21.10;99.90;;;;;;5042479;28;20647;-74
2022/08/24 08:05:48;;;;;;;6.13;5.00;;;21.20;99.90;;;;;;5031599;28;20181;-74
2022/08/24 08:08:14;;;;;;;6.30;5.75;;;21.30;99.90;;;;;;5038412;28;20357;-74
2022/08/24 08:10:39;;;;;;;6.40;5.30;;;21.40;99.90;;;;;;5043554;28;20623;-74
2022/08/24 08:13:06;;;;;;;5.45;4.95;;;21.40;99.90;;;;;;5040459;28;20195;-75
2022/08/24 08:15:32;;;;;;;5.15;4.63;;;21.40;99.90;;;;;;5039706;28;20219;-75
2022/08/24 08:17:58;;;;;;;6.07;5.00;;;21.40;99.90;;;;;;5042388;28;20608;-75
2022/08/24 08:20:23;;;;;;;4.88;4.43;;;21.40;99.90;;;;;;5041135;28;20307;-75
2022/08/24 08:25:37;;;;;;;6.85;5.53;;;21.60;99.90;;;;;;5043511;28;20222;-76
2022/08/24 08:28:05;;;;;;;5.93;5.22;;;21.80;99.90;;;;;;5043016;28;20197;-73
2022/08/24 08:30:32;;;;;;;5.75;5.25;;;22.00;99.90;;;;;;5042953;28;20176;-73
2022/08/24 08:32:57;;;;;;;11.23;6.00;;;22.20;99.90;;;;;;5040750;28;20207;-73
2022/08/24 08:35:25;;;;;;;5.53;4.45;;;22.40;99.90;;;;;;5030606;28;20528;-73
2022/08/24 08:37:50;;;;;;;5.00;4.45;;;22.50;99.90;;;;;;5038652;28;20196;-73
2022/08/24 08:40:29;;;;;;;4.25;3.85;;;22.70;99.90;;;;;;5039748;28;20326;-73
2022/08/24 08:43:09;;;;;;;6.28;3.75;;;22.90;99.90;;;;;;5041939;28;20666;-73
2022/08/24 08:45:59;;;;;;;4.35;4.05;;;23.10;99.90;;;;;;5038631;28;20183;-73
2022/08/24 08:48:52;;;;;;;6.07;4.03;;;23.50;99.90;;;;;;5039115;28;20258;-73
2022/08/24 08:51:52;;;;;;;3.70;3.30;;;23.60;99.90;;;;;;5031029;28;20184;-73
2022/08/24 08:54:56;;;;;;;3.95;3.65;;;23.80;99.90;;;;;;5043088;28;20566;-73
2022/08/24 08:57:58;;;;;;;6.30;3.47;;;24.20;99.90;;;;;;5033289;28;20562;-73
2022/08/24 09:00:33;;;;;;;4.38;3.75;;;24.40;99.90;;;;;;5038352;28;20188;-73
2022/08/24 09:03:20;;;;;;;4.45;4.10;;;24.60;99.90;;;;;;5041124;28;20172;-73
2022/08/24 09:06:26;;;;;;;3.47;3.28;;;24.70;99.90;;;;;;5042520;28;20172;-73
2022/08/24 09:08:53;;;;;;;3.65;3.42;;;25.10;99.90;;;;;;5033673;28;20288;-74
2022/08/24 09:11:26;;;;;;;4.03;3.63;;;25.50;99.90;;;;;;5041778;28;20168;-73
2022/08/24 09:14:18;;;;;;;5.38;3.53;;;26.00;99.90;;;;;;5033208;28;20239;-72
2022/08/24 09:17:12;;;;;;;3.72;2.80;;;27.20;99.90;;;;;;5041627;28;20597;-73
2022/08/24 09:20:16;;;;;;;3.33;3.13;;;29.50;99.90;;;;;;5030692;28;20258;-73
2022/08/24 09:22:46;;;;;;;3.55;3.25;;;31.80;92.60;;;;;;5037459;28;20259;-73
2022/08/24 09:25:38;;;;;;;3.22;3.00;;;34.00;80.50;;;;;;5026476;28;20222;-74
2022/08/24 09:28:03;;;;;;;3.45;3.15;;;34.60;71.90;;;;;;5041308;28;20210;-73
2022/08/24 09:30:52;;;;;;;3.92;3.13;;;34.60;70.00;;;;;;5041353;28;20203;-73
2022/08/24 09:33:22;;;;;;;3.08;2.92;;;34.80;68.90;;;;;;5031756;28;20208;-73
2022/08/24 09:35:50;;;;;;;2.42;2.22;;;36.20;63.80;;;;;;5043037;28;20167;-71
2022/08/24 09:38:29;;;;;;;2.50;2.40;;;37.60;58.20;;;;;;5039360;28;20277;-71
2022/08/24 09:41:24;;;;;;;2.38;2.13;;;38.90;55.50;;;;;;5039196;28;20183;-72
2022/08/24 09:44:08;;;;;;;3.58;1.98;;;39.70;53.60;;;;;;5051626;28;20317;-71
2022/08/24 09:47:02;;;;;;;2.60;2.40;;;39.90;50.90;;;;;;5048361;28;20587;-70
2022/08/24 09:49:37;;;;;;;2.35;2.17;;;37.80;52.40;;;;;;5032977;28;20256;-71
2022/08/24 09:52:21;;;;;;;2.35;2.20;;;35.60;56.30;;;;;;5041423;28;20172;-71
2022/08/24 09:55:10;;;;;;;2.50;2.40;;;34.60;59.20;;;;;;5045221;28;20211;-71
2022/08/24 09:57:58;;;;;;;2.50;2.40;;;34.20;59.60;;;;;;5034502;28;20196;-71
2022/08/24 10:00:30;;;;;;;2.63;2.42;;;33.60;61.40;;;;;;5042950;28;20188;-71
2022/08/24 10:03:14;;;;;;;3.20;2.50;;;33.40;62.30;;;;;;5044856;28;20271;-71
2022/08/24 10:06:18;;;;;;;2.85;2.65;;;33.70;61.40;;;;;;5035430;28;20172;-71
2022/08/24 10:08:53;;;;;;;3.25;2.20;;;34.30;62.30;;;;;;5023857;28;20201;-71
2022/08/24 10:11:57;;;;;;;2.55;2.35;;;34.90;59.70;;;;;;5046021;28;20175;-71
2022/08/24 10:14:41;;;;;;;2.38;2.15;;;34.50;59.20;;;;;;5042355;28;20216;-71
2022/08/24 10:17:19;;;;;;;2.58;2.38;;;35.20;59.60;;;;;;5033462;28;20222;-71
2022/08/24 10:19:48;;;;;;;2.67;2.47;;;35.80;58.00;;;;;;5040624;28;20172;-71
2022/08/24 10:22:24;;;;;;;2.10;2.00;;;35.30;58.50;;;;;;5059988;28;20216;-71
2022/08/24 10:24:56;;;;;;;3.47;2.33;;;34.90;58.80;;;;;;5042994;28;20715;-70
2022/08/24 10:27:40;;;;;;;2.65;2.55;;;34.50;58.80;;;;;;5044024;28;20256;-71
2022/08/24 10:30:17;;;;;;;2.67;2.50;;;36.10;58.50;;;;;;5060510;28;20179;-72
2022/08/24 10:32:52;;;;;;;2.20;2.08;;;38.60;54.00;;;;;;5045431;28;20175;-70
2022/08/24 10:35:20;;;;;;;2.20;2.10;;;41.00;50.90;;;;;;5031436;28;20171;-73
2022/08/24 10:41:37;;;;;;;2.42;2.22;;;43.20;46.00;;;;;;5034595;28;20211;-72
2022/08/24 10:44:30;;;;;;;2.78;2.20;;;42.30;46.60;;;;;;5039712;28;21517;-71
2022/08/24 10:47:05;;;;;;;2.15;2.00;;;43.70;44.70;;;;;;5039969;28;21988;-71
2022/08/24 10:49:34;;;;;;;2.13;2.03;;;43.50;44.20;;;;;;5038649;28;20171;-71
2022/08/24 10:52:21;;;;;;;2.53;1.98;;;43.20;44.10;;;;;;5037883;28;20263;-71
2022/08/24 10:54:47;;;;;;;2.05;1.95;;;41.10;45.70;;;;;;5042612;28;20234;-71
2022/08/24 10:57:34;;;;;;;2.78;2.38;;;39.40;48.40;;;;;;5039536;28;20235;-74
2022/08/24 11:00:13;;;;;;;2.22;1.95;;;39.50;49.30;;;;;;5042106;28;20190;-74
2022/08/24 11:02:44;;;;;;;3.80;2.33;;;41.50;46.60;;;;;;5042796;28;20167;-74
2022/08/24 11:05:14;;;;;;;2.67;2.08;;;43.10;44.20;;;;;;5026277;28;20259;-73
2022/08/24 11:08:01;;;;;;;2.13;2.00;;;43.40;43.40;;;;;;5034084;28;20204;-73
2022/08/24 11:10:33;;;;;;;2.03;1.92;;;42.60;45.00;;;;;;5039865;28;20172;-73
2022/08/24 11:13:22;;;;;;;2.10;2.00;;;43.00;43.80;;;;;;5042966;28;20763;-73
2022/08/24 11:15:51;;;;;;;2.58;2.38;;;42.70;44.70;;;;;;5040027;28;20172;-73
2022/08/24 11:18:17;;;;;;;2.53;2.00;;;42.40;44.00;;;;;;5044531;28;20198;-73
2022/08/24 11:20:47;;;;;;;4.05;2.38;;;41.70;45.60;;;;;;5038975;28;20581;-73
2022/08/24 11:23:20;;;;;;;2.95;2.05;;;41.00;46.20;;;;;;5037608;28;20197;-74
2022/08/24 11:26:05;;;;;;;2.53;2.00;;;40.80;46.30;;;;;;5044328;28;20183;-73
2022/08/24 11:28:32;;;;;;;2.00;1.90;;;40.20;46.90;;;;;;5042179;28;20203;-74
2022/08/24 11:30:58;;;;;;;4.63;2.05;;;39.50;47.10;;;;;;5031453;28;20556;-73
2022/08/24 11:33:46;;;;;;;2.30;2.20;;;39.10;47.70;;;;;;5051796;28;20199;-74
2022/08/24 11:36:17;;;;;;;2.10;1.98;;;38.00;49.00;;;;;;5035312;28;20442;-74
2022/08/24 11:38:43;;;;;;;2.20;2.10;;;37.30;50.80;;;;;;5037469;28;20712;-75
2022/08/24 11:41:17;;;;;;;2.67;2.13;;;36.40;51.70;;;;;;5042297;28;20180;-73
2022/08/24 11:44:09;;;;;;;2.22;2.13;;;35.20;53.40;;;;;;5040814;28;20180;-73
2022/08/24 11:47:16;;;;;;;2.75;2.20;;;34.00;55.80;;;;;;5036354;28;20229;-73
2022/08/24 11:49:51;;;;;;;2.97;2.40;;;33.30;57.80;;;;;;5037036;28;20187;-73
2022/08/24 11:52:47;;;;;;;2.67;2.50;;;32.80;58.50;;;;;;5036840;28;20173;-72
2022/08/24 11:55:27;;;;;;;2.30;2.20;;;32.50;59.70;;;;;;5037301;28;20290;-73
2022/08/24 11:58:01;;;;;;;2.22;2.00;;;32.80;59.80;;;;;;5045836;28;20290;-73
2022/08/24 12:00:55;;;;;;;2.20;2.10;;;33.20;58.90;;;;;;5039836;28;20190;-74
2022/08/24 12:03:51;;;;;;;2.15;2.05;;;34.30;57.00;;;;;;5025764;28;20230;-73
2022/08/24 12:06:55;;;;;;;2.28;2.10;;;35.70;55.90;;;;;;5033406;28;20168;-73
2022/08/24 12:09:29;;;;;;;2.38;2.17;;;37.80;51.20;;;;;;5037119;28;20179;-73
2022/08/24 12:12:25;;;;;;;2.47;2.00;;;38.60;50.60;;;;;;5036356;28;20245;-75
2022/08/24 12:15:01;;;;;;;2.42;2.00;;;39.20;48.90;;;;;;5043579;28;20690;-74
2022/08/24 12:17:32;;;;;;;1.92;1.83;;;39.30;48.30;;;;;;5036731;28;20277;-73
2022/08/24 12:20:30;;;;;;;2.03;1.92;;;38.70;48.20;;;;;;5043224;28;20259;-73
2022/08/24 12:23:01;;;;;;;2.30;2.20;;;37.10;49.70;;;;;;5035940;28;20220;-73
2022/08/24 12:28:38;;;;;;;2.10;2.00;;;35.10;53.80;;;;;;5042454;28;20198;-74
2022/08/24 12:31:35;;;;;;;2.05;1.95;;;34.40;55.00;;;;;;5054598;28;20254;-74
2022/08/24 12:34:07;;;;;;;2.35;2.25;;;33.80;57.10;;;;;;5043571;28;20227;-74
2022/08/24 12:36:45;;;;;;;4.93;2.38;;;33.40;57.30;;;;;;5043192;28;20187;-73
2022/08/24 12:39:27;;;;;;;2.00;1.90;;;32.90;58.10;;;;;;5029009;28;20175;-74
2022/08/24 12:42:27;;;;;;;2.35;2.15;;;32.80;58.80;;;;;;5042192;28;20183;-74
2022/08/24 12:45:04;;;;;;;2.60;2.40;;;32.80;59.90;;;;;;5043530;28;20200;-74
2022/08/24 12:47:40;;;;;;;4.63;2.40;;;32.60;59.70;;;;;;5031827;28;20187;-72
2022/08/24 12:50:34;;;;;;;2.80;2.60;;;32.50;59.30;;;;;;5039486;28;20175;-72
2022/08/24 12:53:37;;;;;;;2.83;2.67;;;32.40;59.40;;;;;;5038155;28;20775;-73
2022/08/24 12:56:12;;;;;;;2.53;2.40;;;32.60;60.50;;;;;;5037366;28;20189;-73
2022/08/24 12:58:59;;;;;;;2.22;2.13;;;33.90;58.50;;;;;;5054463;28;20249;-73
2022/08/24 13:01:32;;;;;;;2.38;2.28;;;36.20;54.40;;;;;;5033680;28;20175;-74
2022/08/24 13:04:26;;;;;;;2.63;2.42;;;37.40;52.00;;;;;;5040882;28;20677;-74
2022/08/24 13:07:00;;;;;;;2.80;2.70;;;38.20;50.60;;;;;;5038250;28;20208;-74
2022/08/24 13:09:35;;;;;;;2.50;2.40;;;38.30;50.80;;;;;;5025739;28;20227;-74
2022/08/24 13:12:29;;;;;;;3.70;3.40;;;37.90;50.60;;;;;;5038722;28;20190;-75
2022/08/24 13:15:20;;;;;;;3.60;3.30;;;37.20;51.60;;;;;;5041925;28;20214;-75
2022/08/24 13:17:47;;;;;;;3.85;3.55;;;36.50;52.30;;;;;;5039255;28;20218;-73
2022/08/24 13:20:41;;;;;;;3.80;3.42;;;35.90;53.10;;;;;;5048261;28;20172;-73
2022/08/24 13:23:10;;;;;;;3.25;3.00;;;35.00;54.90;;;;;;5030105;28;20187;-73
2022/08/24 13:26:06;;;;;;;4.22;3.60;;;34.40;55.70;;;;;;5043038;28;20179;-74
2022/08/24 13:28:37;;;;;;;3.60;3.33;;;34.30;56.00;;;;;;5043435;28;20206;-74